createdAt,value
2022-08-23T00:00:41.422Z,100.00
2022-08-23T00:10:44.241Z,100.00
2022-08-23T00:20:46.180Z,100.00
2022-08-23T00:30:51.016Z,100.00
2022-08-23T00:40:53.998Z,100.00
2022-08-23T00:51:21.731Z,100.00
2022-08-23T01:01:26.016Z,100.00
2022-08-23T01:11:45.921Z,100.00
2022-08-23T01:21:57.899Z,100.00
2022-08-23T01:32:00.953Z,100.00
2022-08-23T01:42:07.498Z,100.00
2022-08-23T01:52:09.649Z,100.00
2022-08-23T02:02:12.455Z,100.00
2022-08-23T02:12:14.139Z,100.00
2022-08-23T02:22:20.050Z,100.00
2022-08-23T02:32:22.046Z,100.00
2022-08-23T02:42:29.580Z,100.00
2022-08-23T02:52:31.387Z,100.00
2022-08-23T03:02:33.580Z,100.00
2022-08-23T03:12:37.253Z,100.00
2022-08-23T03:22:39.035Z,100.00
2022-08-23T03:32:41.105Z,100.00
2022-08-23T03:42:52.135Z,100.00
2022-08-23T03:52:53.820Z,100.00
2022-08-23T04:02:56.610Z,100.00
2022-08-23T04:12:58.875Z,100.00
2022-08-23T04:23:01.220Z,100.00
2022-08-23T04:33:03.129Z,100.00
2022-08-23T04:43:12.899Z,100.00
2022-08-23T04:53:14.992Z,100.00
2022-08-23T05:03:16.628Z,100.00
2022-08-23T05:13:20.720Z,100.00
2022-08-23T05:23:31.743Z,100.00
2022-08-23T05:33:35.235Z,100.00
2022-08-23T05:43:37.630Z,100.00
2022-08-23T06:04:56.745Z,100.00
2022-08-23T06:14:59.952Z,100.00
2022-08-23T06:25:01.662Z,100.00
2022-08-23T06:35:33.289Z,100.00
2022-08-23T06:45:34.918Z,100.00
2022-08-23T06:55:36.999Z,100.00
2022-08-23T07:05:39.476Z,100.00
2022-08-23T07:25:43.851Z,100.00
2022-08-23T07:35:48.904Z,100.00
2022-08-23T07:45:51.673Z,100.00
2022-08-23T07:55:56.808Z,100.00
2022-08-23T08:06:07.738Z,100.00
2022-08-23T08:16:19.895Z,99.12
2022-08-23T08:26:27.151Z,90.56
2022-08-23T08:36:41.337Z,93.28
2022-08-23T08:46:50.297Z,87.14
2022-08-23T08:56:55.914Z,84.98
2022-08-23T09:17:56.962Z,76.63
2022-08-23T09:27:58.953Z,66.17
2022-08-23T09:38:20.583Z,57.06
2022-08-23T09:48:35.707Z,64.29
2022-08-23T09:58:41.227Z,61.94
2022-08-23T10:08:56.693Z,66.15
2022-08-23T10:19:10.667Z,64.09
2022-08-23T10:29:41.034Z,62.21
2022-08-23T10:39:59.193Z,70.07
2022-08-23T10:50:13.109Z,70.23
2022-08-23T11:00:27.227Z,59.59
2022-08-23T11:10:39.426Z,41.50
2022-08-23T11:20:50.393Z,46.18
2022-08-23T11:31:29.495Z,35.69
2022-08-23T11:41:56.276Z,35.82
2022-08-23T11:52:32.115Z,34.96
2022-08-23T12:02:47.966Z,43.14
2022-08-23T12:13:18.443Z,46.46
2022-08-23T12:23:21.466Z,48.81
2022-08-23T12:33:58.867Z,46.63
2022-08-23T12:54:55.969Z,47.44
2022-08-23T13:05:14.858Z,53.15
2022-08-23T13:15:45.156Z,56.43
2022-08-23T13:25:49.174Z,57.82
2022-08-23T13:35:53.584Z,59.36
2022-08-23T13:46:00.202Z,56.01
2022-08-23T13:56:02.379Z,54.62
2022-08-23T14:06:11.498Z,34.30
2022-08-23T14:16:34.361Z,36.92
2022-08-23T14:26:36.769Z,56.66
2022-08-23T15:21:58.066Z,53.02
2022-08-23T15:32:00.487Z,57.75
2022-08-23T15:42:03.023Z,66.25
2022-08-23T15:52:05.255Z,68.87
2022-08-23T16:02:07.575Z,70.67
2022-08-23T16:12:09.780Z,74.43
2022-08-23T16:22:12.766Z,80.34
2022-08-23T16:32:25.040Z,87.78
2022-08-23T16:42:26.771Z,90.59
2022-08-23T16:52:34.782Z,93.32
2022-08-23T17:02:38.233Z,100.00
2022-08-23T17:12:47.429Z,100.00
2022-08-23T17:22:49.564Z,100.00
2022-08-23T17:32:56.647Z,100.00
2022-08-23T17:43:03.498Z,100.00
2022-08-23T17:53:09.811Z,100.00
2022-08-23T18:03:13.779Z,100.00
2022-08-23T18:23:36.568Z,100.00
2022-08-23T18:33:50.379Z,100.00
2022-08-23T18:43:53.829Z,100.00
2022-08-23T18:53:58.142Z,100.00
2022-08-23T19:04:10.146Z,100.00
2022-08-23T19:14:20.388Z,100.00
2022-08-23T19:24:25.710Z,100.00
2022-08-23T19:34:29.317Z,100.00
2022-08-23T19:55:47.597Z,100.00
2022-08-23T20:06:03.703Z,100.00
2022-08-23T20:16:06.803Z,100.00
2022-08-23T20:26:20.191Z,100.00
2022-08-23T20:36:25.102Z,100.00
2022-08-23T20:46:33.558Z,100.00
2022-08-23T20:57:15.198Z,100.00
2022-08-23T21:07:17.102Z,100.00
2022-08-23T21:17:20.076Z,100.00
2022-08-23T21:27:24.102Z,100.00
2022-08-23T21:37:27.592Z,100.00
2022-08-23T21:47:30.126Z,100.00
2022-08-23T21:57:38.528Z,100.00
2022-08-23T22:07:40.319Z,100.00
2022-08-23T22:17:43.413Z,100.00
2022-08-23T22:27:47.477Z,100.00
2022-08-23T22:38:12.330Z,100.00
2022-08-23T22:48:14.066Z,100.00
2022-08-23T22:58:15.754Z,100.00
2022-08-23T23:08:29.572Z,100.00
2022-08-23T23:18:31.447Z,100.00
2022-08-23T23:28:33.338Z,100.00
2022-08-23T23:38:34.927Z,100.00
2022-08-23T23:48:41.552Z,100.00
2022-08-23T23:58:47.989Z,100.00
